sensor_id;sensor_type;location;lat;lon;timestamp;P1;durP1;ratioP1;P2;durP2;ratioP2
72201;SDS011;60105;54.956;73.412;2023-07-16T00:01:39;15.98;;;9.07;;
72201;SDS011;60105;54.956;73.412;2023-07-16T00:04:42;13.77;;;8.60;;
72201;SDS011;60105;54.956;73.412;2023-07-16T00:07:43;13.13;;;7.20;;
72201;SDS011;60105;54.956;73.412;2023-07-16T00:10:45;12.93;;;7.20;;
72201;SDS011;60105;54.956;73.412;2023-07-16T00:13:46;10.70;;;6.35;;
72201;SDS011;60105;54.956;73.412;2023-07-16T00:17:28;11.40;;;6.30;;
72201;SDS011;60105;54.956;73.412;2023-07-16T00:20:30;9.43;;;5.03;;
72201;SDS011;60105;54.956;73.412;2023-07-16T00:23:32;10.25;;;5.40;;
72201;SDS011;60105;54.956;73.412;2023-07-16T00:26:34;9.20;;;5.38;;
72201;SDS011;60105;54.956;73.412;2023-07-16T00:29:35;9.20;;;5.00;;
72201;SDS011;60105;54.956;73.412;2023-07-16T00:32:36;9.77;;;5.70;;
72201;SDS011;60105;54.956;73.412;2023-07-16T00:35:37;6.23;;;3.27;;
72201;SDS011;60105;54.956;73.412;2023-07-16T00:38:39;7.03;;;3.40;;
72201;SDS011;60105;54.956;73.412;2023-07-16T00:41:41;5.93;;;2.73;;
72201;SDS011;60105;54.956;73.412;2023-07-16T00:44:43;4.57;;;2.13;;
72201;SDS011;60105;54.956;73.412;2023-07-16T00:47:44;5.43;;;2.33;;
72201;SDS011;60105;54.956;73.412;2023-07-16T00:50:46;4.28;;;2.50;;
72201;SDS011;60105;54.956;73.412;2023-07-16T00:53:49;4.30;;;2.40;;
72201;SDS011;60105;54.956;73.412;2023-07-16T00:57:29;11.30;;;4.80;;
72201;SDS011;60105;54.956;73.412;2023-07-16T01:00:34;27.92;;;8.27;;
72201;SDS011;60105;54.956;73.412;2023-07-16T01:03:36;22.70;;;9.80;;
72201;SDS011;60105;54.956;73.412;2023-07-16T01:06:39;32.00;;;11.18;;
72201;SDS011;60105;54.956;73.412;2023-07-16T01:09:50;35.90;;;10.37;;
72201;SDS011;60105;54.956;73.412;2023-07-16T01:12:54;32.35;;;12.73;;
72201;SDS011;60105;54.956;73.412;2023-07-16T01:15:56;30.75;;;11.93;;
72201;SDS011;60105;54.956;73.412;2023-07-16T01:18:58;25.37;;;9.20;;
72201;SDS011;60105;54.956;73.412;2023-07-16T01:25:36;10.50;;;4.30;;
72201;SDS011;60105;54.956;73.412;2023-07-16T01:35:34;7.32;;;2.45;;
72201;SDS011;60105;54.956;73.412;2023-07-16T01:38:36;5.60;;;2.40;;
72201;SDS011;60105;54.956;73.412;2023-07-16T01:41:37;11.13;;;3.50;;
72201;SDS011;60105;54.956;73.412;2023-07-16T01:44:38;11.37;;;3.73;;
72201;SDS011;60105;54.956;73.412;2023-07-16T01:50:56;6.80;;;2.90;;
72201;SDS011;60105;54.956;73.412;2023-07-16T01:53:57;5.13;;;2.40;;
72201;SDS011;60105;54.956;73.412;2023-07-16T01:57:28;11.05;;;3.40;;
72201;SDS011;60105;54.956;73.412;2023-07-16T02:00:29;10.65;;;4.03;;
72201;SDS011;60105;54.956;73.412;2023-07-16T02:03:31;14.27;;;5.13;;
72201;SDS011;60105;54.956;73.412;2023-07-16T02:06:32;18.80;;;7.20;;
72201;SDS011;60105;54.956;73.412;2023-07-16T02:09:33;16.65;;;5.68;;
72201;SDS011;60105;54.956;73.412;2023-07-16T02:12:38;10.32;;;4.18;;
72201;SDS011;60105;54.956;73.412;2023-07-16T02:15:39;19.77;;;4.63;;
72201;SDS011;60105;54.956;73.412;2023-07-16T02:18:40;11.65;;;5.55;;
72201;SDS011;60105;54.956;73.412;2023-07-16T02:21:42;10.67;;;5.80;;
72201;SDS011;60105;54.956;73.412;2023-07-16T02:24:44;10.23;;;5.75;;
72201;SDS011;60105;54.956;73.412;2023-07-16T02:27:47;16.93;;;7.37;;
72201;SDS011;60105;54.956;73.412;2023-07-16T02:30:49;14.68;;;5.32;;
72201;SDS011;60105;54.956;73.412;2023-07-16T02:33:51;12.67;;;6.53;;
72201;SDS011;60105;54.956;73.412;2023-07-16T02:37:28;21.67;;;8.48;;
72201;SDS011;60105;54.956;73.412;2023-07-16T02:40:33;24.80;;;9.55;;
72201;SDS011;60105;54.956;73.412;2023-07-16T02:43:34;25.70;;;10.13;;
72201;SDS011;60105;54.956;73.412;2023-07-16T02:46:37;22.05;;;9.25;;
72201;SDS011;60105;54.956;73.412;2023-07-16T02:49:38;10.37;;;5.23;;
72201;SDS011;60105;54.956;73.412;2023-07-16T02:52:40;6.00;;;3.40;;
72201;SDS011;60105;54.956;73.412;2023-07-16T02:55:41;6.30;;;3.50;;
72201;SDS011;60105;54.956;73.412;2023-07-16T02:58:43;5.28;;;3.08;;
72201;SDS011;60105;54.956;73.412;2023-07-16T03:02:28;7.41;;;3.28;;
72201;SDS011;60105;54.956;73.412;2023-07-16T03:05:29;5.38;;;3.05;;
72201;SDS011;60105;54.956;73.412;2023-07-16T03:08:33;7.82;;;4.47;;
72201;SDS011;60105;54.956;73.412;2023-07-16T03:11:35;13.47;;;4.77;;
72201;SDS011;60105;54.956;73.412;2023-07-16T03:14:36;7.40;;;4.05;;
72201;SDS011;60105;54.956;73.412;2023-07-16T03:17:38;5.57;;;3.15;;
72201;SDS011;60105;54.956;73.412;2023-07-16T03:20:39;5.70;;;3.17;;
72201;SDS011;60105;54.956;73.412;2023-07-16T03:23:40;5.13;;;3.05;;
72201;SDS011;60105;54.956;73.412;2023-07-16T03:26:41;5.07;;;3.25;;
72201;SDS011;60105;54.956;73.412;2023-07-16T03:29:43;4.77;;;2.83;;
72201;SDS011;60105;54.956;73.412;2023-07-16T03:32:48;6.55;;;3.40;;
72201;SDS011;60105;54.956;73.412;2023-07-16T03:35:51;7.28;;;3.38;;
72201;SDS011;60105;54.956;73.412;2023-07-16T03:38:53;7.37;;;3.17;;
72201;SDS011;60105;54.956;73.412;2023-07-16T03:42:28;6.75;;;3.03;;
72201;SDS011;60105;54.956;73.412;2023-07-16T03:45:30;5.53;;;3.45;;
72201;SDS011;60105;54.956;73.412;2023-07-16T03:48:32;8.33;;;3.50;;
72201;SDS011;60105;54.956;73.412;2023-07-16T03:51:33;7.25;;;3.55;;
72201;SDS011;60105;54.956;73.412;2023-07-16T03:54:34;7.43;;;3.95;;
72201;SDS011;60105;54.956;73.412;2023-07-16T03:57:36;6.53;;;3.43;;
72201;SDS011;60105;54.956;73.412;2023-07-16T04:00:38;6.18;;;3.20;;
72201;SDS011;60105;54.956;73.412;2023-07-16T04:03:43;5.38;;;3.50;;
72201;SDS011;60105;54.956;73.412;2023-07-16T04:07:28;5.29;;;3.06;;
72201;SDS011;60105;54.956;73.412;2023-07-16T04:10:29;6.03;;;3.75;;
72201;SDS011;60105;54.956;73.412;2023-07-16T04:13:31;5.50;;;3.20;;
72201;SDS011;60105;54.956;73.412;2023-07-16T04:16:32;5.72;;;3.10;;
72201;SDS011;60105;54.956;73.412;2023-07-16T04:19:33;6.30;;;3.58;;
72201;SDS011;60105;54.956;73.412;2023-07-16T04:22:35;6.72;;;3.45;;
72201;SDS011;60105;54.956;73.412;2023-07-16T04:25:38;5.32;;;3.00;;
72201;SDS011;60105;54.956;73.412;2023-07-16T04:28:39;5.50;;;2.90;;
72201;SDS011;60105;54.956;73.412;2023-07-16T04:31:40;15.18;;;4.15;;
72201;SDS011;60105;54.956;73.412;2023-07-16T04:34:41;5.10;;;3.00;;
72201;SDS011;60105;54.956;73.412;2023-07-16T04:37:43;5.20;;;3.65;;
72201;SDS011;60105;54.956;73.412;2023-07-16T04:40:44;5.20;;;3.13;;
72201;SDS011;60105;54.956;73.412;2023-07-16T04:43:45;5.80;;;2.83;;
72201;SDS011;60105;54.956;73.412;2023-07-16T04:47:28;5.00;;;3.33;;
72201;SDS011;60105;54.956;73.412;2023-07-16T04:50:29;5.10;;;2.77;;
72201;SDS011;60105;54.956;73.412;2023-07-16T04:53:31;5.68;;;3.33;;
72201;SDS011;60105;54.956;73.412;2023-07-16T04:56:32;6.65;;;3.67;;
72201;SDS011;60105;54.956;73.412;2023-07-16T04:59:33;6.00;;;2.80;;
72201;SDS011;60105;54.956;73.412;2023-07-16T05:02:35;5.17;;;4.33;;
72201;SDS011;60105;54.956;73.412;2023-07-16T05:05:37;11.30;;;4.05;;
72201;SDS011;60105;54.956;73.412;2023-07-16T05:08:38;8.52;;;4.32;;
72201;SDS011;60105;54.956;73.412;2023-07-16T05:11:40;6.88;;;3.30;;
72201;SDS011;60105;54.956;73.412;2023-07-16T05:14:47;7.00;;;3.50;;
72201;SDS011;60105;54.956;73.412;2023-07-16T05:17:49;5.97;;;3.93;;
72201;SDS011;60105;54.956;73.412;2023-07-16T05:20:51;8.50;;;3.80;;
72201;SDS011;60105;54.956;73.412;2023-07-16T05:23:52;8.45;;;3.80;;
72201;SDS011;60105;54.956;73.412;2023-07-16T05:27:28;5.90;;;3.35;;
72201;SDS011;60105;54.956;73.412;2023-07-16T05:30:29;6.03;;;3.00;;
72201;SDS011;60105;54.956;73.412;2023-07-16T05:33:31;4.67;;;3.00;;
72201;SDS011;60105;54.956;73.412;2023-07-16T05:36:32;5.68;;;3.10;;
72201;SDS011;60105;54.956;73.412;2023-07-16T05:39:33;5.20;;;3.17;;
72201;SDS011;60105;54.956;73.412;2023-07-16T05:42:35;5.13;;;2.67;;
72201;SDS011;60105;54.956;73.412;2023-07-16T05:45:36;7.63;;;3.47;;
72201;SDS011;60105;54.956;73.412;2023-07-16T05:48:38;6.40;;;3.70;;
72201;SDS011;60105;54.956;73.412;2023-07-16T05:51:39;9.90;;;5.53;;
72201;SDS011;60105;54.956;73.412;2023-07-16T05:54:42;7.82;;;3.65;;
72201;SDS011;60105;54.956;73.412;2023-07-16T05:57:45;4.97;;;3.53;;
72201;SDS011;60105;54.956;73.412;2023-07-16T06:00:47;7.90;;;3.90;;
72201;SDS011;60105;54.956;73.412;2023-07-16T06:03:49;7.83;;;3.30;;
72201;SDS011;60105;54.956;73.412;2023-07-16T06:07:28;6.38;;;3.30;;
72201;SDS011;60105;54.956;73.412;2023-07-16T06:10:29;7.27;;;3.73;;
72201;SDS011;60105;54.956;73.412;2023-07-16T06:13:31;7.37;;;3.50;;
72201;SDS011;60105;54.956;73.412;2023-07-16T06:16:32;6.38;;;3.28;;
72201;SDS011;60105;54.956;73.412;2023-07-16T06:19:33;6.83;;;3.20;;
72201;SDS011;60105;54.956;73.412;2023-07-16T06:22:35;4.90;;;2.92;;
72201;SDS011;60105;54.956;73.412;2023-07-16T06:25:36;9.67;;;2.97;;
72201;SDS011;60105;54.956;73.412;2023-07-16T06:28:38;7.43;;;2.70;;
72201;SDS011;60105;54.956;73.412;2023-07-16T06:31:41;6.43;;;3.20;;
72201;SDS011;60105;54.956;73.412;2023-07-16T06:34:44;10.87;;;3.67;;
72201;SDS011;60105;54.956;73.412;2023-07-16T06:37:46;12.77;;;4.93;;
72201;SDS011;60105;54.956;73.412;2023-07-16T06:40:49;9.30;;;3.83;;
72201;SDS011;60105;54.956;73.412;2023-07-16T06:43:50;16.90;;;5.47;;
72201;SDS011;60105;54.956;73.412;2023-07-16T06:47:28;23.25;;;6.88;;
72201;SDS011;60105;54.956;73.412;2023-07-16T06:50:29;18.87;;;6.63;;
72201;SDS011;60105;54.956;73.412;2023-07-16T06:53:31;14.17;;;5.00;;
72201;SDS011;60105;54.956;73.412;2023-07-16T06:56:33;17.48;;;5.30;;
72201;SDS011;60105;54.956;73.412;2023-07-16T06:59:34;12.02;;;4.35;;
72201;SDS011;60105;54.956;73.412;2023-07-16T07:02:36;9.60;;;4.65;;
72201;SDS011;60105;54.956;73.412;2023-07-16T07:05:40;13.10;;;4.00;;
72201;SDS011;60105;54.956;73.412;2023-07-16T07:08:44;10.57;;;4.13;;
72201;SDS011;60105;54.956;73.412;2023-07-16T07:12:28;6.41;;;3.21;;
72201;SDS011;60105;54.956;73.412;2023-07-16T07:15:29;12.32;;;3.50;;
72201;SDS011;60105;54.956;73.412;2023-07-16T07:18:31;8.77;;;3.88;;
72201;SDS011;60105;54.956;73.412;2023-07-16T07:21:32;11.45;;;3.72;;
72201;SDS011;60105;54.956;73.412;2023-07-16T07:24:33;18.07;;;4.17;;
72201;SDS011;60105;54.956;73.412;2023-07-16T07:27:35;12.73;;;3.33;;
72201;SDS011;60105;54.956;73.412;2023-07-16T07:30:36;11.97;;;3.30;;
72201;SDS011;60105;54.956;73.412;2023-07-16T07:33:38;13.18;;;4.63;;
72201;SDS011;60105;54.956;73.412;2023-07-16T07:36:39;14.45;;;4.93;;
72201;SDS011;60105;54.956;73.412;2023-07-16T07:39:40;13.67;;;3.87;;
72201;SDS011;60105;54.956;73.412;2023-07-16T07:42:42;7.80;;;3.72;;
72201;SDS011;60105;54.956;73.412;2023-07-16T07:45:43;6.40;;;3.25;;
72201;SDS011;60105;54.956;73.412;2023-07-16T07:48:45;6.93;;;3.67;;
72201;SDS011;60105;54.956;73.412;2023-07-16T07:51:57;6.37;;;3.43;;
72201;SDS011;60105;54.956;73.412;2023-07-16T07:54:58;7.00;;;3.75;;
72201;SDS011;60105;54.956;73.412;2023-07-16T07:57:59;7.05;;;3.05;;
72201;SDS011;60105;54.956;73.412;2023-07-16T08:01:07;7.22;;;3.67;;
72201;SDS011;60105;54.956;73.412;2023-07-16T08:04:09;13.73;;;4.30;;
72201;SDS011;60105;54.956;73.412;2023-07-16T08:10:30;14.85;;;5.63;;
72201;SDS011;60105;54.956;73.412;2023-07-16T08:13:31;16.00;;;5.50;;
72201;SDS011;60105;54.956;73.412;2023-07-16T08:16:35;16.20;;;4.80;;
72201;SDS011;60105;54.956;73.412;2023-07-16T08:19:38;11.30;;;4.27;;
72201;SDS011;60105;54.956;73.412;2023-07-16T08:22:39;8.85;;;4.05;;
72201;SDS011;60105;54.956;73.412;2023-07-16T08:25:41;10.77;;;3.70;;
72201;SDS011;60105;54.956;73.412;2023-07-16T08:28:43;8.27;;;3.90;;
72201;SDS011;60105;54.956;73.412;2023-07-16T08:32:29;7.04;;;3.88;;
72201;SDS011;60105;54.956;73.412;2023-07-16T08:35:30;6.90;;;3.37;;
72201;SDS011;60105;54.956;73.412;2023-07-16T08:38:31;10.07;;;3.37;;
72201;SDS011;60105;54.956;73.412;2023-07-16T08:41:33;8.20;;;3.55;;
72201;SDS011;60105;54.956;73.412;2023-07-16T08:47:05;8.77;;;3.72;;
72201;SDS011;60105;54.956;73.412;2023-07-16T08:50:07;5.00;;;3.25;;
72201;SDS011;60105;54.956;73.412;2023-07-16T08:53:10;7.88;;;3.72;;
72201;SDS011;60105;54.956;73.412;2023-07-16T08:56:11;14.23;;;4.93;;
72201;SDS011;60105;54.956;73.412;2023-07-16T09:02:31;7.95;;;3.50;;
72201;SDS011;60105;54.956;73.412;2023-07-16T09:05:32;7.05;;;3.55;;
72201;SDS011;60105;54.956;73.412;2023-07-16T09:08:36;10.10;;;3.78;;
72201;SDS011;60105;54.956;73.412;2023-07-16T09:11:37;9.27;;;3.53;;
72201;SDS011;60105;54.956;73.412;2023-07-16T09:14:47;9.90;;;3.35;;
72201;SDS011;60105;54.956;73.412;2023-07-16T09:17:49;6.07;;;2.70;;
72201;SDS011;60105;54.956;73.412;2023-07-16T09:20:54;5.43;;;3.33;;
72201;SDS011;60105;54.956;73.412;2023-07-16T09:24:05;5.00;;;3.10;;
72201;SDS011;60105;54.956;73.412;2023-07-16T09:27:11;10.32;;;3.33;;
72201;SDS011;60105;54.956;73.412;2023-07-16T09:30:15;6.18;;;3.15;;
72201;SDS011;60105;54.956;73.412;2023-07-16T09:33:18;14.30;;;3.93;;
72201;SDS011;60105;54.956;73.412;2023-07-16T09:36:27;10.30;;;4.30;;
72201;SDS011;60105;54.956;73.412;2023-07-16T09:42:32;14.35;;;5.93;;
72201;SDS011;60105;54.956;73.412;2023-07-16T09:45:37;12.70;;;3.78;;
72201;SDS011;60105;54.956;73.412;2023-07-16T09:48:39;12.07;;;5.67;;
72201;SDS011;60105;54.956;73.412;2023-07-16T09:51:40;8.85;;;3.28;;
72201;SDS011;60105;54.956;73.412;2023-07-16T09:54:44;8.32;;;3.05;;
72201;SDS011;60105;54.956;73.412;2023-07-16T10:00:03;6.35;;;2.70;;
72201;SDS011;60105;54.956;73.412;2023-07-16T10:03:15;4.60;;;2.88;;
72201;SDS011;60105;54.956;73.412;2023-07-16T10:06:19;5.83;;;3.10;;
72201;SDS011;60105;54.956;73.412;2023-07-16T10:12:36;5.33;;;2.57;;
72201;SDS011;60105;54.956;73.412;2023-07-16T10:15:39;6.28;;;2.53;;
72201;SDS011;60105;54.956;73.412;2023-07-16T10:18:51;4.93;;;2.63;;
72201;SDS011;60105;54.956;73.412;2023-07-16T10:22:37;4.88;;;2.13;;
72201;SDS011;60105;54.956;73.412;2023-07-16T10:25:59;5.75;;;2.95;;
72201;SDS011;60105;54.956;73.412;2023-07-16T10:29:02;6.73;;;2.40;;
72201;SDS011;60105;54.956;73.412;2023-07-16T10:32:28;12.35;;;2.95;;
72201;SDS011;60105;54.956;73.412;2023-07-16T10:35:30;5.93;;;2.88;;
72201;SDS011;60105;54.956;73.412;2023-07-16T10:38:39;5.10;;;2.83;;
72201;SDS011;60105;54.956;73.412;2023-07-16T10:41:42;4.63;;;2.22;;
72201;SDS011;60105;54.956;73.412;2023-07-16T10:44:45;6.77;;;2.80;;
72201;SDS011;60105;54.956;73.412;2023-07-16T10:47:53;4.43;;;2.60;;
72201;SDS011;60105;54.956;73.412;2023-07-16T10:50:55;5.93;;;2.78;;
72201;SDS011;60105;54.956;73.412;2023-07-16T10:53:57;6.10;;;2.60;;
72201;SDS011;60105;54.956;73.412;2023-07-16T10:57:28;5.45;;;2.97;;
72201;SDS011;60105;54.956;73.412;2023-07-16T11:00:29;4.87;;;2.80;;
72201;SDS011;60105;54.956;73.412;2023-07-16T11:03:30;10.82;;;3.10;;
72201;SDS011;60105;54.956;73.412;2023-07-16T11:06:32;7.70;;;3.13;;
72201;SDS011;60105;54.956;73.412;2023-07-16T11:09:35;4.95;;;2.60;;
72201;SDS011;60105;54.956;73.412;2023-07-16T11:12:43;4.27;;;2.53;;
72201;SDS011;60105;54.956;73.412;2023-07-16T11:15:45;6.85;;;3.20;;
72201;SDS011;60105;54.956;73.412;2023-07-16T11:18:46;5.75;;;2.95;;
72201;SDS011;60105;54.956;73.412;2023-07-16T11:22:28;6.45;;;2.95;;
72201;SDS011;60105;54.956;73.412;2023-07-16T11:25:30;6.27;;;2.80;;
72201;SDS011;60105;54.956;73.412;2023-07-16T11:28:38;4.53;;;2.72;;
72201;SDS011;60105;54.956;73.412;2023-07-16T11:31:39;4.50;;;2.80;;
72201;SDS011;60105;54.956;73.412;2023-07-16T11:34:51;4.33;;;2.70;;
72201;SDS011;60105;54.956;73.412;2023-07-16T11:37:54;8.20;;;2.50;;
72201;SDS011;60105;54.956;73.412;2023-07-16T11:40:59;6.18;;;3.05;;
72201;SDS011;60105;54.956;73.412;2023-07-16T11:44:01;4.83;;;2.70;;
72201;SDS011;60105;54.956;73.412;2023-07-16T11:47:28;2.70;;;1.60;;
72201;SDS011;60105;54.956;73.412;2023-07-16T11:50:30;5.27;;;3.20;;
72201;SDS011;60105;54.956;73.412;2023-07-16T11:53:32;5.15;;;2.65;;
72201;SDS011;60105;54.956;73.412;2023-07-16T11:56:33;6.38;;;2.88;;
72201;SDS011;60105;54.956;73.412;2023-07-16T11:59:34;4.50;;;2.55;;
72201;SDS011;60105;54.956;73.412;2023-07-16T12:02:36;5.23;;;1.87;;
72201;SDS011;60105;54.956;73.412;2023-07-16T12:05:37;4.47;;;2.55;;
72201;SDS011;60105;54.956;73.412;2023-07-16T12:08:38;5.57;;;2.80;;
72201;SDS011;60105;54.956;73.412;2023-07-16T12:11:39;5.30;;;3.33;;
72201;SDS011;60105;54.956;73.412;2023-07-16T12:14:41;5.83;;;3.00;;
72201;SDS011;60105;54.956;73.412;2023-07-16T12:17:42;8.37;;;2.43;;
72201;SDS011;60105;54.956;73.412;2023-07-16T12:20:43;6.00;;;2.90;;
72201;SDS011;60105;54.956;73.412;2023-07-16T12:23:45;5.27;;;3.07;;
72201;SDS011;60105;54.956;73.412;2023-07-16T12:27:27;7.24;;;2.71;;
72201;SDS011;60105;54.956;73.412;2023-07-16T12:30:29;6.77;;;3.00;;
72201;SDS011;60105;54.956;73.412;2023-07-16T12:33:31;7.77;;;2.87;;
72201;SDS011;60105;54.956;73.412;2023-07-16T12:36:32;4.53;;;2.30;;
72201;SDS011;60105;54.956;73.412;2023-07-16T12:39:33;4.50;;;2.23;;
72201;SDS011;60105;54.956;73.412;2023-07-16T12:42:34;3.88;;;2.22;;
72201;SDS011;60105;54.956;73.412;2023-07-16T12:45:36;4.95;;;2.85;;
72201;SDS011;60105;54.956;73.412;2023-07-16T12:48:37;4.60;;;2.33;;
72201;SDS011;60105;54.956;73.412;2023-07-16T12:51:39;5.18;;;2.50;;
72201;SDS011;60105;54.956;73.412;2023-07-16T12:54:41;6.60;;;2.45;;
72201;SDS011;60105;54.956;73.412;2023-07-16T12:57:42;5.97;;;2.20;;
72201;SDS011;60105;54.956;73.412;2023-07-16T13:00:43;7.07;;;2.50;;
72201;SDS011;60105;54.956;73.412;2023-07-16T13:03:45;6.03;;;2.93;;
72201;SDS011;60105;54.956;73.412;2023-07-16T13:06:56;5.97;;;2.70;;
72201;SDS011;60105;54.956;73.412;2023-07-16T13:09:57;4.53;;;2.17;;
72201;SDS011;60105;54.956;73.412;2023-07-16T13:12:58;4.73;;;2.83;;
72201;SDS011;60105;54.956;73.412;2023-07-16T13:16:00;5.10;;;2.23;;
72201;SDS011;60105;54.956;73.412;2023-07-16T13:19:01;6.07;;;3.00;;
72201;SDS011;60105;54.956;73.412;2023-07-16T13:22:27;4.00;;;3.10;;
72201;SDS011;60105;54.956;73.412;2023-07-16T13:25:29;4.70;;;2.50;;
72201;SDS011;60105;54.956;73.412;2023-07-16T13:28:31;6.15;;;2.88;;
72201;SDS011;60105;54.956;73.412;2023-07-16T13:31:32;5.90;;;3.07;;
72201;SDS011;60105;54.956;73.412;2023-07-16T13:34:33;12.48;;;3.67;;
72201;SDS011;60105;54.956;73.412;2023-07-16T13:37:35;7.00;;;3.13;;
72201;SDS011;60105;54.956;73.412;2023-07-16T13:40:37;5.20;;;3.00;;
72201;SDS011;60105;54.956;73.412;2023-07-16T13:43:39;6.53;;;2.83;;
72201;SDS011;60105;54.956;73.412;2023-07-16T13:46:40;5.68;;;3.33;;
72201;SDS011;60105;54.956;73.412;2023-07-16T13:49:41;5.10;;;3.07;;
72201;SDS011;60105;54.956;73.412;2023-07-16T13:52:43;6.50;;;3.30;;
72201;SDS011;60105;54.956;73.412;2023-07-16T13:55:44;9.35;;;3.80;;
72201;SDS011;60105;54.956;73.412;2023-07-16T13:58:46;4.70;;;3.10;;
72201;SDS011;60105;54.956;73.412;2023-07-16T14:02:27;4.72;;;3.00;;
72201;SDS011;60105;54.956;73.412;2023-07-16T14:05:28;5.47;;;2.60;;
72201;SDS011;60105;54.956;73.412;2023-07-16T14:08:29;6.93;;;2.90;;
72201;SDS011;60105;54.956;73.412;2023-07-16T14:11:35;4.50;;;2.50;;
72201;SDS011;60105;54.956;73.412;2023-07-16T14:14:36;5.33;;;2.90;;
72201;SDS011;60105;54.956;73.412;2023-07-16T14:17:37;10.60;;;3.47;;
72201;SDS011;60105;54.956;73.412;2023-07-16T14:20:38;5.78;;;3.40;;
72201;SDS011;60105;54.956;73.412;2023-07-16T14:23:40;7.50;;;3.70;;
72201;SDS011;60105;54.956;73.412;2023-07-16T14:26:41;7.75;;;3.63;;
72201;SDS011;60105;54.956;73.412;2023-07-16T14:29:43;5.97;;;3.60;;
72201;SDS011;60105;54.956;73.412;2023-07-16T14:32:44;7.65;;;3.75;;
72201;SDS011;60105;54.956;73.412;2023-07-16T14:35:46;7.43;;;3.90;;
72201;SDS011;60105;54.956;73.412;2023-07-16T14:38:47;7.03;;;4.22;;
72201;SDS011;60105;54.956;73.412;2023-07-16T14:42:28;6.18;;;4.38;;
72201;SDS011;60105;54.956;73.412;2023-07-16T14:45:30;9.98;;;4.43;;
72201;SDS011;60105;54.956;73.412;2023-07-16T14:48:34;8.48;;;4.50;;
72201;SDS011;60105;54.956;73.412;2023-07-16T14:51:39;6.88;;;3.97;;
72201;SDS011;60105;54.956;73.412;2023-07-16T14:54:43;8.73;;;4.50;;
72201;SDS011;60105;54.956;73.412;2023-07-16T14:57:48;9.17;;;4.53;;
72201;SDS011;60105;54.956;73.412;2023-07-16T15:01:00;8.50;;;4.18;;
72201;SDS011;60105;54.956;73.412;2023-07-16T15:04:05;13.47;;;4.33;;
72201;SDS011;60105;54.956;73.412;2023-07-16T15:07:06;7.60;;;3.77;;
72201;SDS011;60105;54.956;73.412;2023-07-16T15:10:08;8.50;;;4.22;;
72201;SDS011;60105;54.956;73.412;2023-07-16T15:13:09;8.68;;;3.70;;
72201;SDS011;60105;54.956;73.412;2023-07-16T15:16:12;9.27;;;3.60;;
72201;SDS011;60105;54.956;73.412;2023-07-16T15:19:14;7.60;;;3.70;;
72201;SDS011;60105;54.956;73.412;2023-07-16T15:25:29;10.23;;;4.30;;
72201;SDS011;60105;54.956;73.412;2023-07-16T15:28:31;6.53;;;3.10;;
72201;SDS011;60105;54.956;73.412;2023-07-16T15:31:35;10.27;;;5.17;;
72201;SDS011;60105;54.956;73.412;2023-07-16T15:34:36;7.23;;;3.47;;
72201;SDS011;60105;54.956;73.412;2023-07-16T15:37:37;8.80;;;3.83;;
72201;SDS011;60105;54.956;73.412;2023-07-16T15:40:39;6.00;;;3.30;;
72201;SDS011;60105;54.956;73.412;2023-07-16T15:43:40;8.18;;;3.90;;
72201;SDS011;60105;54.956;73.412;2023-07-16T15:46:42;8.77;;;3.65;;
72201;SDS011;60105;54.956;73.412;2023-07-16T15:49:43;8.83;;;3.90;;
72201;SDS011;60105;54.956;73.412;2023-07-16T15:52:44;9.80;;;4.28;;
72201;SDS011;60105;54.956;73.412;2023-07-16T15:55:46;8.93;;;4.32;;
72201;SDS011;60105;54.956;73.412;2023-07-16T15:58:49;8.73;;;4.50;;
72201;SDS011;60105;54.956;73.412;2023-07-16T16:02:28;11.57;;;4.60;;
72201;SDS011;60105;54.956;73.412;2023-07-16T16:05:29;11.20;;;4.60;;
72201;SDS011;60105;54.956;73.412;2023-07-16T16:08:32;10.30;;;5.18;;
72201;SDS011;60105;54.956;73.412;2023-07-16T16:11:37;7.80;;;4.70;;
72201;SDS011;60105;54.956;73.412;2023-07-16T16:14:38;7.05;;;4.63;;
72201;SDS011;60105;54.956;73.412;2023-07-16T16:17:41;9.32;;;4.70;;
72201;SDS011;60105;54.956;73.412;2023-07-16T16:20:43;10.97;;;5.47;;
72201;SDS011;60105;54.956;73.412;2023-07-16T16:23:45;11.65;;;4.82;;
72201;SDS011;60105;54.956;73.412;2023-07-16T16:27:27;8.07;;;4.72;;
72201;SDS011;60105;54.956;73.412;2023-07-16T16:30:29;10.33;;;5.00;;
72201;SDS011;60105;54.956;73.412;2023-07-16T16:33:31;9.95;;;4.57;;
72201;SDS011;60105;54.956;73.412;2023-07-16T16:36:33;13.23;;;4.70;;
72201;SDS011;60105;54.956;73.412;2023-07-16T16:39:46;8.00;;;4.67;;
72201;SDS011;60105;54.956;73.412;2023-07-16T16:42:48;6.97;;;4.50;;
72201;SDS011;60105;54.956;73.412;2023-07-16T16:45:50;12.52;;;5.25;;
72201;SDS011;60105;54.956;73.412;2023-07-16T16:48:51;17.53;;;5.47;;
72201;SDS011;60105;54.956;73.412;2023-07-16T16:52:29;7.85;;;4.97;;
72201;SDS011;60105;54.956;73.412;2023-07-16T16:55:30;11.73;;;5.03;;
72201;SDS011;60105;54.956;73.412;2023-07-16T16:58:31;10.30;;;5.50;;
72201;SDS011;60105;54.956;73.412;2023-07-16T17:01:33;9.13;;;5.38;;
72201;SDS011;60105;54.956;73.412;2023-07-16T17:04:35;9.30;;;5.18;;
72201;SDS011;60105;54.956;73.412;2023-07-16T17:07:37;12.87;;;6.23;;
72201;SDS011;60105;54.956;73.412;2023-07-16T17:10:39;13.70;;;7.72;;
72201;SDS011;60105;54.956;73.412;2023-07-16T17:13:43;13.83;;;6.60;;
72201;SDS011;60105;54.956;73.412;2023-07-16T17:17:27;13.76;;;7.65;;
72201;SDS011;60105;54.956;73.412;2023-07-16T17:20:30;11.05;;;6.72;;
72201;SDS011;60105;54.956;73.412;2023-07-16T17:23:32;7.90;;;4.53;;
72201;SDS011;60105;54.956;73.412;2023-07-16T17:26:35;8.95;;;4.20;;
72201;SDS011;60105;54.956;73.412;2023-07-16T17:29:36;7.25;;;4.18;;
72201;SDS011;60105;54.956;73.412;2023-07-16T17:32:37;11.47;;;5.03;;
72201;SDS011;60105;54.956;73.412;2023-07-16T17:35:39;7.13;;;4.20;;
72201;SDS011;60105;54.956;73.412;2023-07-16T17:38:40;6.57;;;4.17;;
72201;SDS011;60105;54.956;73.412;2023-07-16T17:41:41;7.40;;;3.92;;
72201;SDS011;60105;54.956;73.412;2023-07-16T17:44:44;8.67;;;4.20;;
72201;SDS011;60105;54.956;73.412;2023-07-16T17:47:49;8.57;;;3.87;;
72201;SDS011;60105;54.956;73.412;2023-07-16T17:50:50;7.20;;;4.77;;
72201;SDS011;60105;54.956;73.412;2023-07-16T17:53:52;11.67;;;7.07;;
72201;SDS011;60105;54.956;73.412;2023-07-16T17:57:27;16.48;;;5.45;;
72201;SDS011;60105;54.956;73.412;2023-07-16T18:00:29;9.55;;;4.95;;
72201;SDS011;60105;54.956;73.412;2023-07-16T18:03:30;7.67;;;4.23;;
72201;SDS011;60105;54.956;73.412;2023-07-16T18:06:32;11.20;;;4.32;;
72201;SDS011;60105;54.956;73.412;2023-07-16T18:09:34;8.43;;;4.80;;
72201;SDS011;60105;54.956;73.412;2023-07-16T18:12:35;10.00;;;4.45;;
72201;SDS011;60105;54.956;73.412;2023-07-16T18:15:37;7.68;;;4.00;;
72201;SDS011;60105;54.956;73.412;2023-07-16T18:18:39;9.17;;;4.00;;
72201;SDS011;60105;54.956;73.412;2023-07-16T18:21:40;9.07;;;4.57;;
72201;SDS011;60105;54.956;73.412;2023-07-16T18:24:42;9.52;;;4.45;;
72201;SDS011;60105;54.956;73.412;2023-07-16T18:27:43;7.63;;;4.20;;
72201;SDS011;60105;54.956;73.412;2023-07-16T18:30:44;7.25;;;4.35;;
72201;SDS011;60105;54.956;73.412;2023-07-16T18:33:46;8.83;;;4.60;;
72201;SDS011;60105;54.956;73.412;2023-07-16T18:36:56;7.98;;;4.77;;
72201;SDS011;60105;54.956;73.412;2023-07-16T18:39:57;10.27;;;5.17;;
72201;SDS011;60105;54.956;73.412;2023-07-16T18:42:59;8.27;;;4.70;;
72201;SDS011;60105;54.956;73.412;2023-07-16T18:46:00;7.13;;;3.97;;
72201;SDS011;60105;54.956;73.412;2023-07-16T18:49:01;6.13;;;3.83;;